Brownwood, TX (76801)

3:49 PM CDT on August 30, 2015 (GMT -0500)
Early | | Change Station
CLOSE
Current Station
Personal Weather Station
Location: Early, TX
Elevation: 1407 ft
Nearby Weather Stations

Elev 1407 ft 31.74 °N, 98.94 °W | Updated 7 minutes ago

Partly Cloudy
Partly Cloudy
99.5 °F
Feels Like 98 °F
N
4.2
Wind Variable Wind from SSE

Today
High -- | Low -- °F
--% Chance of Precip.
Yesterday
High -- | Low -- °F
Precip. -- in
7:10 AM 8:02 PM
Full, 98% visible
Pressure 30.01 in
Visibility 10.0 miles
Clouds Clear
Heat Index 98 °F
Dew Point 56 °F
Humidity 24%
Rainfall 0.00 in
Snow Depth Not available.
UV 9 out of 12
Pollen 8.30 out of 12
Air Quality Not available.
Flu Activity Not available.
METAR KBWD 302015Z AUTO 18007KT 10SM -RA CLR 32/17 A3001 RMK AO2
Pressure 30.01 in
Visibility 10.0 miles
Clouds Clear
Heat Index 98 °F
Dew Point 56 °F
Humidity 24%
Rainfall 0.00 in
Snow Depth Not available.
UV 9 out of 12
Pollen 8.30 out of 12
Air Quality Not available.
Flu Activity Not available.
METAR KBWD 302015Z AUTO 18007KT 10SM -RA CLR 32/17 A3001 RMK AO2

10-Day Weather Forecast

×

Almanac

Astronomy

Aug. 30, 2015 Rise Set
Actual Time
Civil Twilight
Nautical Twilight
Astronomical Twilight
Moon
Length of Visible Light
Length of Day
Tomorrow will be .
, % of the Moon is Illuminated

Today's Extremes

State Highs State Lows

Community

WunderPhotos

Upload Photos

1,851,057 photos uploaded!

WunderBlogs® & News

Nearby

Air Quality

  Air Quality AQ Index Pollutant
Not available.

Snow Depth

Station Depth Elevation

Earthquake Activity

City Distance Mag. Time & Date
Minimum magnitude displayed is 2.5.

Coastal Water Temperatures

Place Temperature

Stations

Nearby Weather Stations

Station Location Temp. Windchill Dew Point Humidity Wind Precip. Elev Updated Type